sensor_id;sensor_type;location;lat;lon;timestamp;P1;durP1;ratioP1;P2;durP2;ratioP2
17993;SDS011;9122;48.406;9.984;2022-08-19T00:01:16;13.95;;;12.50;;
17993;SDS011;9122;48.406;9.984;2022-08-19T00:04:02;13.57;;;12.27;;
17993;SDS011;9122;48.406;9.984;2022-08-19T00:06:49;14.05;;;12.38;;
17993;SDS011;9122;48.406;9.984;2022-08-19T00:09:34;14.82;;;13.30;;
17993;SDS011;9122;48.406;9.984;2022-08-19T00:12:20;16.00;;;13.20;;
17993;SDS011;9122;48.406;9.984;2022-08-19T00:15:06;15.02;;;13.63;;
17993;SDS011;9122;48.406;9.984;2022-08-19T00:17:55;16.63;;;13.93;;
17993;SDS011;9122;48.406;9.984;2022-08-19T00:20:39;15.20;;;13.57;;
17993;SDS011;9122;48.406;9.984;2022-08-19T00:23:24;16.67;;;14.93;;
17993;SDS011;9122;48.406;9.984;2022-08-19T00:26:10;16.35;;;14.65;;
17993;SDS011;9122;48.406;9.984;2022-08-19T00:28:55;16.17;;;14.32;;
17993;SDS011;9122;48.406;9.984;2022-08-19T00:31:40;15.55;;;14.05;;
17993;SDS011;9122;48.406;9.984;2022-08-19T00:34:25;17.25;;;15.48;;
17993;SDS011;9122;48.406;9.984;2022-08-19T00:37:16;17.40;;;14.75;;
17993;SDS011;9122;48.406;9.984;2022-08-19T00:40:02;17.77;;;15.50;;
17993;SDS011;9122;48.406;9.984;2022-08-19T00:42:49;18.10;;;15.25;;
17993;SDS011;9122;48.406;9.984;2022-08-19T00:45:37;17.63;;;15.27;;
17993;SDS011;9122;48.406;9.984;2022-08-19T00:48:25;16.45;;;14.77;;
17993;SDS011;9122;48.406;9.984;2022-08-19T00:51:10;18.63;;;16.60;;
17993;SDS011;9122;48.406;9.984;2022-08-19T00:53:55;17.65;;;15.73;;
17993;SDS011;9122;48.406;9.984;2022-08-19T00:56:45;17.75;;;15.95;;
17993;SDS011;9122;48.406;9.984;2022-08-19T00:59:30;17.90;;;16.08;;
17993;SDS011;9122;48.406;9.984;2022-08-19T01:02:15;18.45;;;15.65;;
17993;SDS011;9122;48.406;9.984;2022-08-19T01:05:04;19.40;;;15.77;;
17993;SDS011;9122;48.406;9.984;2022-08-19T01:07:53;19.33;;;16.05;;
17993;SDS011;9122;48.406;9.984;2022-08-19T01:10:42;18.45;;;16.33;;
17993;SDS011;9122;48.406;9.984;2022-08-19T01:13:30;17.50;;;15.63;;
17993;SDS011;9122;48.406;9.984;2022-08-19T01:16:17;18.58;;;16.25;;
17993;SDS011;9122;48.406;9.984;2022-08-19T01:19:08;18.27;;;16.13;;
17993;SDS011;9122;48.406;9.984;2022-08-19T01:22:18;18.52;;;16.17;;
17993;SDS011;9122;48.406;9.984;2022-08-19T01:25:07;21.63;;;16.83;;
17993;SDS011;9122;48.406;9.984;2022-08-19T01:27:51;20.50;;;16.10;;
17993;SDS011;9122;48.406;9.984;2022-08-19T01:30:36;18.90;;;15.90;;
17993;SDS011;9122;48.406;9.984;2022-08-19T01:33:20;18.80;;;16.83;;
17993;SDS011;9122;48.406;9.984;2022-08-19T01:36:07;18.40;;;16.35;;
17993;SDS011;9122;48.406;9.984;2022-08-19T01:38:57;19.50;;;15.57;;
17993;SDS011;9122;48.406;9.984;2022-08-19T01:41:43;17.95;;;16.05;;
17993;SDS011;9122;48.406;9.984;2022-08-19T01:44:27;17.95;;;15.75;;
17993;SDS011;9122;48.406;9.984;2022-08-19T01:47:11;17.98;;;16.08;;
17993;SDS011;9122;48.406;9.984;2022-08-19T01:49:57;20.80;;;16.75;;
17993;SDS011;9122;48.406;9.984;2022-08-19T01:52:42;17.88;;;15.65;;
17993;SDS011;9122;48.406;9.984;2022-08-19T01:55:27;19.60;;;16.05;;
17993;SDS011;9122;48.406;9.984;2022-08-19T01:58:12;19.88;;;16.55;;
17993;SDS011;9122;48.406;9.984;2022-08-19T02:01:00;18.80;;;16.60;;
17993;SDS011;9122;48.406;9.984;2022-08-19T02:03:45;19.30;;;15.98;;
17993;SDS011;9122;48.406;9.984;2022-08-19T02:06:29;19.23;;;16.15;;
17993;SDS011;9122;48.406;9.984;2022-08-19T02:09:14;20.58;;;16.10;;
17993;SDS011;9122;48.406;9.984;2022-08-19T02:11:59;20.67;;;16.45;;
17993;SDS011;9122;48.406;9.984;2022-08-19T02:14:44;20.48;;;16.25;;
17993;SDS011;9122;48.406;9.984;2022-08-19T02:17:29;18.90;;;16.40;;
17993;SDS011;9122;48.406;9.984;2022-08-19T02:20:14;18.77;;;16.77;;
17993;SDS011;9122;48.406;9.984;2022-08-19T02:22:58;18.77;;;16.77;;
17993;SDS011;9122;48.406;9.984;2022-08-19T02:25:46;22.38;;;17.58;;
17993;SDS011;9122;48.406;9.984;2022-08-19T02:28:31;23.20;;;18.05;;
17993;SDS011;9122;48.406;9.984;2022-08-19T02:31:17;20.83;;;17.20;;
17993;SDS011;9122;48.406;9.984;2022-08-19T02:34:04;19.90;;;17.40;;
17993;SDS011;9122;48.406;9.984;2022-08-19T02:36:48;19.17;;;17.10;;
17993;SDS011;9122;48.406;9.984;2022-08-19T02:39:32;20.75;;;16.63;;
17993;SDS011;9122;48.406;9.984;2022-08-19T02:42:17;20.50;;;17.40;;
17993;SDS011;9122;48.406;9.984;2022-08-19T02:45:02;20.45;;;17.00;;
17993;SDS011;9122;48.406;9.984;2022-08-19T02:47:47;22.17;;;17.52;;
17993;SDS011;9122;48.406;9.984;2022-08-19T02:50:31;22.13;;;16.63;;
17993;SDS011;9122;48.406;9.984;2022-08-19T02:53:16;21.70;;;18.13;;
17993;SDS011;9122;48.406;9.984;2022-08-19T02:56:00;18.77;;;16.42;;
17993;SDS011;9122;48.406;9.984;2022-08-19T02:58:45;19.48;;;16.88;;
17993;SDS011;9122;48.406;9.984;2022-08-19T03:01:32;19.57;;;17.10;;
17993;SDS011;9122;48.406;9.984;2022-08-19T03:04:16;19.70;;;17.13;;
17993;SDS011;9122;48.406;9.984;2022-08-19T03:07:01;23.42;;;16.88;;
17993;SDS011;9122;48.406;9.984;2022-08-19T03:09:45;19.05;;;15.57;;
17993;SDS011;9122;48.406;9.984;2022-08-19T03:12:30;19.83;;;17.73;;
17993;SDS011;9122;48.406;9.984;2022-08-19T03:15:14;21.05;;;17.92;;
17993;SDS011;9122;48.406;9.984;2022-08-19T03:17:59;22.90;;;18.02;;
17993;SDS011;9122;48.406;9.984;2022-08-19T03:20:45;21.23;;;18.50;;
17993;SDS011;9122;48.406;9.984;2022-08-19T03:23:31;23.00;;;17.95;;
17993;SDS011;9122;48.406;9.984;2022-08-19T03:26:16;22.23;;;17.48;;
17993;SDS011;9122;48.406;9.984;2022-08-19T03:29:02;20.45;;;17.92;;
17993;SDS011;9122;48.406;9.984;2022-08-19T03:31:47;24.48;;;17.88;;
17993;SDS011;9122;48.406;9.984;2022-08-19T03:34:35;20.87;;;17.70;;
17993;SDS011;9122;48.406;9.984;2022-08-19T03:37:21;23.17;;;18.42;;
17993;SDS011;9122;48.406;9.984;2022-08-19T03:40:06;21.52;;;17.80;;
17993;SDS011;9122;48.406;9.984;2022-08-19T03:42:51;19.30;;;16.20;;
17993;SDS011;9122;48.406;9.984;2022-08-19T03:45:36;21.93;;;17.77;;
17993;SDS011;9122;48.406;9.984;2022-08-19T03:48:20;21.42;;;18.08;;
17993;SDS011;9122;48.406;9.984;2022-08-19T03:51:05;20.77;;;17.73;;
17993;SDS011;9122;48.406;9.984;2022-08-19T03:53:51;22.52;;;17.60;;
17993;SDS011;9122;48.406;9.984;2022-08-19T03:56:38;24.75;;;18.88;;
17993;SDS011;9122;48.406;9.984;2022-08-19T03:59:26;23.33;;;17.85;;
17993;SDS011;9122;48.406;9.984;2022-08-19T04:02:13;26.85;;;19.73;;
17993;SDS011;9122;48.406;9.984;2022-08-19T04:04:57;22.33;;;19.08;;
17993;SDS011;9122;48.406;9.984;2022-08-19T04:07:42;23.27;;;18.70;;
17993;SDS011;9122;48.406;9.984;2022-08-19T04:10:27;25.87;;;18.80;;
17993;SDS011;9122;48.406;9.984;2022-08-19T04:13:11;23.85;;;18.70;;
17993;SDS011;9122;48.406;9.984;2022-08-19T04:15:56;28.13;;;20.33;;
17993;SDS011;9122;48.406;9.984;2022-08-19T04:18:40;23.98;;;19.55;;
17993;SDS011;9122;48.406;9.984;2022-08-19T04:21:26;22.33;;;18.03;;
17993;SDS011;9122;48.406;9.984;2022-08-19T04:24:12;22.73;;;18.37;;
17993;SDS011;9122;48.406;9.984;2022-08-19T04:26:58;23.97;;;18.63;;
17993;SDS011;9122;48.406;9.984;2022-08-19T04:29:43;21.23;;;17.53;;
17993;SDS011;9122;48.406;9.984;2022-08-19T04:32:28;22.67;;;19.25;;
17993;SDS011;9122;48.406;9.984;2022-08-19T04:35:15;24.02;;;19.38;;
17993;SDS011;9122;48.406;9.984;2022-08-19T04:38:00;26.98;;;18.45;;
17993;SDS011;9122;48.406;9.984;2022-08-19T04:40:45;23.98;;;18.98;;
17993;SDS011;9122;48.406;9.984;2022-08-19T04:43:51;24.53;;;18.83;;
17993;SDS011;9122;48.406;9.984;2022-08-19T04:46:35;25.60;;;19.48;;
17993;SDS011;9122;48.406;9.984;2022-08-19T04:49:21;24.17;;;19.43;;
17993;SDS011;9122;48.406;9.984;2022-08-19T04:52:06;28.40;;;20.63;;
17993;SDS011;9122;48.406;9.984;2022-08-19T04:54:52;25.55;;;19.60;;
17993;SDS011;9122;48.406;9.984;2022-08-19T04:57:37;24.30;;;18.40;;
17993;SDS011;9122;48.406;9.984;2022-08-19T05:00:24;24.38;;;19.13;;
17993;SDS011;9122;48.406;9.984;2022-08-19T05:03:08;25.70;;;18.57;;
17993;SDS011;9122;48.406;9.984;2022-08-19T05:05:52;22.13;;;19.13;;
17993;SDS011;9122;48.406;9.984;2022-08-19T05:08:37;22.30;;;18.35;;
17993;SDS011;9122;48.406;9.984;2022-08-19T05:11:28;22.00;;;18.10;;
17993;SDS011;9122;48.406;9.984;2022-08-19T05:14:14;26.40;;;18.63;;
17993;SDS011;9122;48.406;9.984;2022-08-19T05:17:00;24.50;;;18.60;;
17993;SDS011;9122;48.406;9.984;2022-08-19T05:19:45;23.50;;;17.98;;
17993;SDS011;9122;48.406;9.984;2022-08-19T05:22:48;24.60;;;18.77;;
17993;SDS011;9122;48.406;9.984;2022-08-19T05:25:32;24.17;;;18.50;;
17993;SDS011;9122;48.406;9.984;2022-08-19T05:28:18;24.42;;;17.85;;
17993;SDS011;9122;48.406;9.984;2022-08-19T05:31:03;22.85;;;18.67;;
17993;SDS011;9122;48.406;9.984;2022-08-19T05:33:48;26.73;;;19.73;;
17993;SDS011;9122;48.406;9.984;2022-08-19T05:36:35;28.53;;;21.57;;
17993;SDS011;9122;48.406;9.984;2022-08-19T05:39:25;27.02;;;19.75;;
17993;SDS011;9122;48.406;9.984;2022-08-19T05:42:12;28.58;;;19.88;;
17993;SDS011;9122;48.406;9.984;2022-08-19T05:44:57;27.17;;;20.80;;
17993;SDS011;9122;48.406;9.984;2022-08-19T05:47:42;27.50;;;21.02;;
17993;SDS011;9122;48.406;9.984;2022-08-19T05:50:26;27.23;;;21.30;;
17993;SDS011;9122;48.406;9.984;2022-08-19T05:53:10;30.75;;;21.20;;
17993;SDS011;9122;48.406;9.984;2022-08-19T05:55:55;24.25;;;19.52;;
17993;SDS011;9122;48.406;9.984;2022-08-19T05:58:40;27.00;;;20.50;;
17993;SDS011;9122;48.406;9.984;2022-08-19T06:01:25;24.63;;;19.47;;
17993;SDS011;9122;48.406;9.984;2022-08-19T06:04:10;28.77;;;18.73;;
17993;SDS011;9122;48.406;9.984;2022-08-19T06:06:55;30.13;;;20.58;;
17993;SDS011;9122;48.406;9.984;2022-08-19T06:09:40;22.03;;;18.80;;
17993;SDS011;9122;48.406;9.984;2022-08-19T06:12:25;25.33;;;18.98;;
17993;SDS011;9122;48.406;9.984;2022-08-19T06:15:14;27.23;;;18.23;;
17993;SDS011;9122;48.406;9.984;2022-08-19T06:17:59;24.50;;;19.10;;
17993;SDS011;9122;48.406;9.984;2022-08-19T06:20:44;25.27;;;19.58;;
17993;SDS011;9122;48.406;9.984;2022-08-19T06:23:29;24.23;;;18.30;;
17993;SDS011;9122;48.406;9.984;2022-08-19T06:26:14;28.23;;;21.17;;
17993;SDS011;9122;48.406;9.984;2022-08-19T06:28:59;27.98;;;20.20;;
17993;SDS011;9122;48.406;9.984;2022-08-19T06:31:46;25.10;;;18.93;;
17993;SDS011;9122;48.406;9.984;2022-08-19T06:34:33;25.98;;;19.13;;
17993;SDS011;9122;48.406;9.984;2022-08-19T06:37:18;22.27;;;18.10;;
17993;SDS011;9122;48.406;9.984;2022-08-19T06:40:02;29.07;;;20.60;;
17993;SDS011;9122;48.406;9.984;2022-08-19T06:42:47;24.03;;;18.90;;
17993;SDS011;9122;48.406;9.984;2022-08-19T06:45:32;26.60;;;19.83;;
17993;SDS011;9122;48.406;9.984;2022-08-19T06:48:16;23.23;;;18.73;;
17993;SDS011;9122;48.406;9.984;2022-08-19T06:51:01;25.00;;;18.55;;
17993;SDS011;9122;48.406;9.984;2022-08-19T06:53:49;27.10;;;19.07;;
17993;SDS011;9122;48.406;9.984;2022-08-19T06:56:35;26.80;;;18.83;;
17993;SDS011;9122;48.406;9.984;2022-08-19T06:59:21;29.30;;;20.97;;
17993;SDS011;9122;48.406;9.984;2022-08-19T07:02:10;23.57;;;18.57;;
17993;SDS011;9122;48.406;9.984;2022-08-19T07:04:55;23.58;;;18.40;;
17993;SDS011;9122;48.406;9.984;2022-08-19T07:07:41;23.97;;;18.23;;
17993;SDS011;9122;48.406;9.984;2022-08-19T07:10:28;25.17;;;18.58;;
17993;SDS011;9122;48.406;9.984;2022-08-19T07:13:15;24.42;;;19.23;;
17993;SDS011;9122;48.406;9.984;2022-08-19T07:16:02;27.83;;;18.37;;
17993;SDS011;9122;48.406;9.984;2022-08-19T07:18:49;25.37;;;18.53;;
17993;SDS011;9122;48.406;9.984;2022-08-19T07:21:34;22.33;;;17.47;;
17993;SDS011;9122;48.406;9.984;2022-08-19T07:24:20;23.20;;;17.83;;
17993;SDS011;9122;48.406;9.984;2022-08-19T07:27:07;22.83;;;18.93;;
17993;SDS011;9122;48.406;9.984;2022-08-19T07:29:53;24.83;;;17.07;;
17993;SDS011;9122;48.406;9.984;2022-08-19T07:32:38;20.70;;;17.15;;
17993;SDS011;9122;48.406;9.984;2022-08-19T07:35:23;22.70;;;17.33;;
17993;SDS011;9122;48.406;9.984;2022-08-19T07:38:08;22.92;;;17.20;;
17993;SDS011;9122;48.406;9.984;2022-08-19T07:40:52;19.20;;;16.98;;
17993;SDS011;9122;48.406;9.984;2022-08-19T07:43:37;23.87;;;17.17;;
17993;SDS011;9122;48.406;9.984;2022-08-19T07:46:22;20.30;;;17.33;;
17993;SDS011;9122;48.406;9.984;2022-08-19T07:49:07;20.58;;;15.93;;
17993;SDS011;9122;48.406;9.984;2022-08-19T07:52:03;20.87;;;16.77;;
17993;SDS011;9122;48.406;9.984;2022-08-19T07:54:50;22.77;;;16.38;;
17993;SDS011;9122;48.406;9.984;2022-08-19T07:57:34;20.90;;;16.17;;
17993;SDS011;9122;48.406;9.984;2022-08-19T08:00:19;24.25;;;17.70;;
17993;SDS011;9122;48.406;9.984;2022-08-19T08:03:04;24.53;;;17.40;;
17993;SDS011;9122;48.406;9.984;2022-08-19T08:05:49;23.70;;;17.50;;
17993;SDS011;9122;48.406;9.984;2022-08-19T08:08:52;21.93;;;17.07;;
17993;SDS011;9122;48.406;9.984;2022-08-19T08:11:59;23.27;;;18.90;;
17993;SDS011;9122;48.406;9.984;2022-08-19T08:14:50;24.90;;;18.60;;
17993;SDS011;9122;48.406;9.984;2022-08-19T08:17:37;21.37;;;17.07;;
17993;SDS011;9122;48.406;9.984;2022-08-19T08:20:23;25.37;;;19.63;;
17993;SDS011;9122;48.406;9.984;2022-08-19T08:23:08;23.10;;;17.40;;
17993;SDS011;9122;48.406;9.984;2022-08-19T08:26:08;22.30;;;18.50;;
17993;SDS011;9122;48.406;9.984;2022-08-19T08:28:53;23.27;;;18.43;;
17993;SDS011;9122;48.406;9.984;2022-08-19T08:31:38;23.20;;;17.20;;
17993;SDS011;9122;48.406;9.984;2022-08-19T08:34:24;23.40;;;18.00;;
17993;SDS011;9122;48.406;9.984;2022-08-19T08:37:08;22.80;;;18.10;;
17993;SDS011;9122;48.406;9.984;2022-08-19T08:39:53;20.60;;;16.53;;
17993;SDS011;9122;48.406;9.984;2022-08-19T08:42:39;26.93;;;18.00;;
17993;SDS011;9122;48.406;9.984;2022-08-19T08:45:32;24.87;;;17.87;;
17993;SDS011;9122;48.406;9.984;2022-08-19T08:52:11;25.07;;;18.70;;
17993;SDS011;9122;48.406;9.984;2022-08-19T08:55:07;23.93;;;17.57;;
17993;SDS011;9122;48.406;9.984;2022-08-19T08:58:00;23.53;;;18.50;;
17993;SDS011;9122;48.406;9.984;2022-08-19T09:01:00;22.57;;;18.73;;
17993;SDS011;9122;48.406;9.984;2022-08-19T09:03:44;26.20;;;18.97;;
17993;SDS011;9122;48.406;9.984;2022-08-19T09:06:32;25.77;;;18.47;;
17993;SDS011;9122;48.406;9.984;2022-08-19T09:09:38;27.10;;;18.63;;
17993;SDS011;9122;48.406;9.984;2022-08-19T09:15:22;23.87;;;18.57;;
17993;SDS011;9122;48.406;9.984;2022-08-19T09:18:11;26.23;;;18.73;;
17993;SDS011;9122;48.406;9.984;2022-08-19T09:20:56;22.37;;;19.03;;
17993;SDS011;9122;48.406;9.984;2022-08-19T09:23:41;21.67;;;18.17;;
17993;SDS011;9122;48.406;9.984;2022-08-19T09:26:26;24.30;;;18.60;;
17993;SDS011;9122;48.406;9.984;2022-08-19T09:29:11;26.47;;;19.13;;
17993;SDS011;9122;48.406;9.984;2022-08-19T09:31:55;24.57;;;19.07;;
17993;SDS011;9122;48.406;9.984;2022-08-19T09:34:40;28.47;;;19.13;;
17993;SDS011;9122;48.406;9.984;2022-08-19T09:37:25;26.33;;;18.87;;
17993;SDS011;9122;48.406;9.984;2022-08-19T09:40:10;28.07;;;18.87;;
17993;SDS011;9122;48.406;9.984;2022-08-19T09:42:56;22.80;;;19.07;;
17993;SDS011;9122;48.406;9.984;2022-08-19T09:45:42;25.43;;;19.83;;
17993;SDS011;9122;48.406;9.984;2022-08-19T09:48:26;25.30;;;18.43;;
17993;SDS011;9122;48.406;9.984;2022-08-19T09:51:11;24.60;;;18.57;;
17993;SDS011;9122;48.406;9.984;2022-08-19T09:54:00;26.63;;;21.13;;
17993;SDS011;9122;48.406;9.984;2022-08-19T09:56:46;24.17;;;19.83;;
17993;SDS011;9122;48.406;9.984;2022-08-19T09:59:31;25.33;;;19.17;;
17993;SDS011;9122;48.406;9.984;2022-08-19T10:02:15;25.83;;;19.80;;
17993;SDS011;9122;48.406;9.984;2022-08-19T10:04:59;25.77;;;21.07;;
17993;SDS011;9122;48.406;9.984;2022-08-19T10:08:03;24.63;;;19.83;;
17993;SDS011;9122;48.406;9.984;2022-08-19T10:10:47;25.47;;;19.73;;
17993;SDS011;9122;48.406;9.984;2022-08-19T10:13:33;25.43;;;20.57;;
17993;SDS011;9122;48.406;9.984;2022-08-19T10:16:20;26.90;;;19.90;;
17993;SDS011;9122;48.406;9.984;2022-08-19T10:19:06;27.07;;;20.97;;
17993;SDS011;9122;48.406;9.984;2022-08-19T10:21:51;24.70;;;19.87;;
17993;SDS011;9122;48.406;9.984;2022-08-19T10:24:36;24.47;;;20.10;;
17993;SDS011;9122;48.406;9.984;2022-08-19T10:27:21;26.73;;;19.93;;
17993;SDS011;9122;48.406;9.984;2022-08-19T10:30:05;25.93;;;20.07;;
17993;SDS011;9122;48.406;9.984;2022-08-19T10:32:50;24.73;;;19.37;;
17993;SDS011;9122;48.406;9.984;2022-08-19T10:35:35;25.43;;;18.50;;
17993;SDS011;9122;48.406;9.984;2022-08-19T10:38:20;27.10;;;21.10;;
17993;SDS011;9122;48.406;9.984;2022-08-19T10:41:09;20.83;;;18.07;;
17993;SDS011;9122;48.406;9.984;2022-08-19T10:44:14;27.27;;;19.23;;
17993;SDS011;9122;48.406;9.984;2022-08-19T10:47:01;22.43;;;17.77;;
17993;SDS011;9122;48.406;9.984;2022-08-19T10:49:48;23.53;;;19.50;;
17993;SDS011;9122;48.406;9.984;2022-08-19T10:52:51;25.50;;;19.47;;
17993;SDS011;9122;48.406;9.984;2022-08-19T10:55:36;22.93;;;19.83;;
17993;SDS011;9122;48.406;9.984;2022-08-19T10:58:39;24.50;;;18.67;;
17993;SDS011;9122;48.406;9.984;2022-08-19T11:01:25;27.47;;;19.70;;
17993;SDS011;9122;48.406;9.984;2022-08-19T11:04:11;29.17;;;19.70;;
17993;SDS011;9122;48.406;9.984;2022-08-19T11:06:57;26.87;;;20.27;;
17993;SDS011;9122;48.406;9.984;2022-08-19T11:09:42;25.30;;;18.87;;
17993;SDS011;9122;48.406;9.984;2022-08-19T11:12:26;27.40;;;20.17;;
17993;SDS011;9122;48.406;9.984;2022-08-19T11:15:11;24.50;;;19.13;;
17993;SDS011;9122;48.406;9.984;2022-08-19T11:17:56;22.40;;;19.43;;
17993;SDS011;9122;48.406;9.984;2022-08-19T11:20:40;25.00;;;20.00;;
17993;SDS011;9122;48.406;9.984;2022-08-19T11:23:25;26.77;;;21.33;;
17993;SDS011;9122;48.406;9.984;2022-08-19T11:26:09;28.43;;;20.07;;
17993;SDS011;9122;48.406;9.984;2022-08-19T11:28:54;30.30;;;21.70;;
17993;SDS011;9122;48.406;9.984;2022-08-19T11:31:40;25.27;;;19.20;;
17993;SDS011;9122;48.406;9.984;2022-08-19T11:34:26;27.10;;;21.37;;
17993;SDS011;9122;48.406;9.984;2022-08-19T11:37:12;28.23;;;21.70;;
17993;SDS011;9122;48.406;9.984;2022-08-19T11:39:56;27.47;;;20.33;;
17993;SDS011;9122;48.406;9.984;2022-08-19T11:42:41;31.27;;;22.40;;
17993;SDS011;9122;48.406;9.984;2022-08-19T11:45:40;27.30;;;21.03;;
17993;SDS011;9122;48.406;9.984;2022-08-19T11:48:25;29.10;;;21.20;;
17993;SDS011;9122;48.406;9.984;2022-08-19T11:51:14;23.90;;;20.03;;
17993;SDS011;9122;48.406;9.984;2022-08-19T11:54:00;28.60;;;21.87;;
17993;SDS011;9122;48.406;9.984;2022-08-19T11:56:45;27.57;;;22.10;;
17993;SDS011;9122;48.406;9.984;2022-08-19T11:59:31;26.90;;;22.07;;
17993;SDS011;9122;48.406;9.984;2022-08-19T12:02:16;28.07;;;21.77;;
17993;SDS011;9122;48.406;9.984;2022-08-19T12:05:00;26.83;;;21.73;;
17993;SDS011;9122;48.406;9.984;2022-08-19T12:07:47;26.30;;;21.33;;
17993;SDS011;9122;48.406;9.984;2022-08-19T12:10:33;30.77;;;21.87;;
17993;SDS011;9122;48.406;9.984;2022-08-19T12:13:18;27.20;;;21.53;;
17993;SDS011;9122;48.406;9.984;2022-08-19T12:16:12;27.93;;;22.87;;
17993;SDS011;9122;48.406;9.984;2022-08-19T12:18:59;27.60;;;19.37;;
17993;SDS011;9122;48.406;9.984;2022-08-19T12:21:47;27.43;;;20.60;;
17993;SDS011;9122;48.406;9.984;2022-08-19T12:24:32;24.80;;;20.33;;
17993;SDS011;9122;48.406;9.984;2022-08-19T12:27:17;27.03;;;20.23;;
17993;SDS011;9122;48.406;9.984;2022-08-19T12:30:02;25.90;;;20.57;;
17993;SDS011;9122;48.406;9.984;2022-08-19T12:32:47;21.48;;;18.40;;
17993;SDS011;9122;48.406;9.984;2022-08-19T12:35:32;26.27;;;19.90;;
17993;SDS011;9122;48.406;9.984;2022-08-19T12:38:16;23.10;;;18.30;;
17993;SDS011;9122;48.406;9.984;2022-08-19T12:41:01;20.60;;;16.83;;
17993;SDS011;9122;48.406;9.984;2022-08-19T12:43:50;16.10;;;14.37;;
17993;SDS011;9122;48.406;9.984;2022-08-19T12:46:35;17.07;;;15.13;;
17993;SDS011;9122;48.406;9.984;2022-08-19T12:49:19;17.33;;;14.30;;
17993;SDS011;9122;48.406;9.984;2022-08-19T12:52:04;15.70;;;13.40;;
17993;SDS011;9122;48.406;9.984;2022-08-19T12:54:49;15.40;;;13.63;;
17993;SDS011;9122;48.406;9.984;2022-08-19T12:57:35;14.90;;;13.30;;
17993;SDS011;9122;48.406;9.984;2022-08-19T13:00:20;16.03;;;12.93;;
17993;SDS011;9122;48.406;9.984;2022-08-19T13:03:06;13.93;;;12.63;;
17993;SDS011;9122;48.406;9.984;2022-08-19T13:05:50;13.13;;;11.83;;
17993;SDS011;9122;48.406;9.984;2022-08-19T13:08:35;13.97;;;12.57;;
17993;SDS011;9122;48.406;9.984;2022-08-19T13:11:22;13.83;;;12.43;;
17993;SDS011;9122;48.406;9.984;2022-08-19T13:14:09;13.17;;;11.87;;
17993;SDS011;9122;48.406;9.984;2022-08-19T13:16:54;13.57;;;12.27;;
17993;SDS011;9122;48.406;9.984;2022-08-19T13:19:39;16.55;;;14.43;;
17993;SDS011;9122;48.406;9.984;2022-08-19T13:22:24;11.17;;;10.07;;
17993;SDS011;9122;48.406;9.984;2022-08-19T13:25:09;12.17;;;8.77;;
17993;SDS011;9122;48.406;9.984;2022-08-19T13:27:54;10.15;;;9.20;;
17993;SDS011;9122;48.406;9.984;2022-08-19T13:30:38;9.20;;;8.30;;
17993;SDS011;9122;48.406;9.984;2022-08-19T13:33:41;9.77;;;8.83;;
17993;SDS011;9122;48.406;9.984;2022-08-19T13:36:25;9.27;;;8.23;;
17993;SDS011;9122;48.406;9.984;2022-08-19T13:39:10;8.90;;;8.10;;
17993;SDS011;9122;48.406;9.984;2022-08-19T13:41:55;8.73;;;8.00;;
17993;SDS011;9122;48.406;9.984;2022-08-19T13:44:40;8.17;;;7.37;;
17993;SDS011;9122;48.406;9.984;2022-08-19T13:47:24;7.63;;;6.30;;
17993;SDS011;9122;48.406;9.984;2022-08-19T13:50:14;10.60;;;8.37;;
17993;SDS011;9122;48.406;9.984;2022-08-19T13:53:00;8.60;;;7.47;;
17993;SDS011;9122;48.406;9.984;2022-08-19T13:55:45;8.30;;;7.53;;
17993;SDS011;9122;48.406;9.984;2022-08-19T13:58:30;8.47;;;7.63;;
17993;SDS011;9122;48.406;9.984;2022-08-19T14:01:19;8.10;;;7.40;;
17993;SDS011;9122;48.406;9.984;2022-08-19T14:04:05;9.10;;;8.30;;
17993;SDS011;9122;48.406;9.984;2022-08-19T14:06:50;9.03;;;8.13;;
17993;SDS011;9122;48.406;9.984;2022-08-19T14:09:34;9.67;;;8.80;;
17993;SDS011;9122;48.406;9.984;2022-08-19T14:12:19;10.13;;;9.23;;
17993;SDS011;9122;48.406;9.984;2022-08-19T14:15:05;10.17;;;9.23;;
17993;SDS011;9122;48.406;9.984;2022-08-19T14:17:51;9.53;;;8.57;;
17993;SDS011;9122;48.406;9.984;2022-08-19T14:20:37;10.40;;;9.40;;
17993;SDS011;9122;48.406;9.984;2022-08-19T14:23:21;10.67;;;9.03;;
17993;SDS011;9122;48.406;9.984;2022-08-19T14:26:10;12.27;;;10.60;;
17993;SDS011;9122;48.406;9.984;2022-08-19T14:28:57;14.50;;;13.10;;
17993;SDS011;9122;48.406;9.984;2022-08-19T14:31:42;13.57;;;11.60;;
17993;SDS011;9122;48.406;9.984;2022-08-19T14:34:26;13.60;;;11.53;;
17993;SDS011;9122;48.406;9.984;2022-08-19T14:37:11;10.50;;;9.50;;
17993;SDS011;9122;48.406;9.984;2022-08-19T14:39:59;11.03;;;9.90;;
17993;SDS011;9122;48.406;9.984;2022-08-19T14:42:45;10.67;;;9.57;;
17993;SDS011;9122;48.406;9.984;2022-08-19T14:45:32;10.60;;;9.50;;
17993;SDS011;9122;48.406;9.984;2022-08-19T14:48:19;11.27;;;10.10;;
17993;SDS011;9122;48.406;9.984;2022-08-19T14:51:05;11.30;;;10.20;;
17993;SDS011;9122;48.406;9.984;2022-08-19T14:53:50;11.63;;;10.43;;
17993;SDS011;9122;48.406;9.984;2022-08-19T14:56:34;10.50;;;9.50;;
17993;SDS011;9122;48.406;9.984;2022-08-19T14:59:19;11.07;;;9.87;;
17993;SDS011;9122;48.406;9.984;2022-08-19T15:02:04;12.17;;;10.47;;
17993;SDS011;9122;48.406;9.984;2022-08-19T15:04:49;12.13;;;10.87;;
17993;SDS011;9122;48.406;9.984;2022-08-19T15:07:34;11.47;;;10.27;;
17993;SDS011;9122;48.406;9.984;2022-08-19T15:10:18;12.67;;;11.47;;
17993;SDS011;9122;48.406;9.984;2022-08-19T15:13:02;12.30;;;11.00;;
17993;SDS011;9122;48.406;9.984;2022-08-19T15:15:47;13.50;;;11.97;;
17993;SDS011;9122;48.406;9.984;2022-08-19T15:18:32;13.43;;;12.03;;
17993;SDS011;9122;48.406;9.984;2022-08-19T15:21:16;13.05;;;11.63;;
17993;SDS011;9122;48.406;9.984;2022-08-19T15:24:01;12.70;;;11.47;;
17993;SDS011;9122;48.406;9.984;2022-08-19T15:26:48;14.15;;;12.70;;
17993;SDS011;9122;48.406;9.984;2022-08-19T15:29:33;13.63;;;12.23;;
17993;SDS011;9122;48.406;9.984;2022-08-19T15:32:17;13.57;;;11.40;;
17993;SDS011;9122;48.406;9.984;2022-08-19T15:35:03;13.57;;;12.23;;
17993;SDS011;9122;48.406;9.984;2022-08-19T15:37:52;11.97;;;10.77;;
17993;SDS011;9122;48.406;9.984;2022-08-19T15:40:37;16.00;;;11.53;;
17993;SDS011;9122;48.406;9.984;2022-08-19T15:43:22;12.60;;;11.43;;
17993;SDS011;9122;48.406;9.984;2022-08-19T15:46:06;12.03;;;10.93;;
17993;SDS011;9122;48.406;9.984;2022-08-19T15:48:51;12.17;;;11.07;;
17993;SDS011;9122;48.406;9.984;2022-08-19T15:51:37;12.87;;;11.53;;
17993;SDS011;9122;48.406;9.984;2022-08-19T15:54:23;13.03;;;11.73;;
17993;SDS011;9122;48.406;9.984;2022-08-19T15:57:07;13.30;;;12.07;;
17993;SDS011;9122;48.406;9.984;2022-08-19T16:00:04;11.93;;;10.73;;
17993;SDS011;9122;48.406;9.984;2022-08-19T16:03:09;12.00;;;10.83;;
17993;SDS011;9122;48.406;9.984;2022-08-19T16:06:16;13.00;;;11.37;;
17993;SDS011;9122;48.406;9.984;2022-08-19T16:09:09;13.07;;;11.80;;
17993;SDS011;9122;48.406;9.984;2022-08-19T16:11:58;13.40;;;12.00;;
17993;SDS011;9122;48.406;9.984;2022-08-19T16:14:44;13.80;;;11.93;;
17993;SDS011;9122;48.406;9.984;2022-08-19T16:17:30;13.10;;;11.70;;
17993;SDS011;9122;48.406;9.984;2022-08-19T16:20:15;13.07;;;11.77;;
17993;SDS011;9122;48.406;9.984;2022-08-19T16:23:00;12.30;;;10.87;;
17993;SDS011;9122;48.406;9.984;2022-08-19T16:25:46;12.63;;;11.43;;
17993;SDS011;9122;48.406;9.984;2022-08-19T16:28:30;11.50;;;10.07;;
17993;SDS011;9122;48.406;9.984;2022-08-19T16:31:15;13.03;;;11.63;;
17993;SDS011;9122;48.406;9.984;2022-08-19T16:34:00;14.63;;;11.80;;
17993;SDS011;9122;48.406;9.984;2022-08-19T16:36:44;12.63;;;11.37;;